East Brunswick, Pennsylvania
Current Conditions -  °F | °C
As of 6:55 AM on Friday 28 Nov 2014 (Local Time) from KHZL Reporting Station
Overcast Overcast  
Wind Chill: -8°   Ceiling: 1300
Heat Index: -3°   Visibility: 10mi
Dew Point: -5°   Wind: 9mph
Humidity: 86%   Direction: 300°WNW
Pressure: 30.14"   Gusts: NA
Location:  40.7138°N, 75.9395°W
Report Text: KHZL 281155Z AUTO 30008KT 10SM BKN013 OVC020 M03/M05 A3014 RMK AO2
Loading
Personal Weather Stations






























Interactive Weather Map New forecast layout! Learn more

10-Day Weather Forecast

Advertisements
Track Severe Weather on mobile